createdAt,value
2017-12-04T00:01:24.492Z,99.90
2017-12-04T00:03:52.199Z,99.90
2017-12-04T00:06:19.109Z,99.90
2017-12-04T00:08:46.042Z,99.90
2017-12-04T00:11:13.717Z,99.90
2017-12-04T00:13:40.641Z,99.90
2017-12-04T00:16:08.325Z,99.90
2017-12-04T00:18:35.254Z,99.90
2017-12-04T00:21:02.934Z,99.90
2017-12-04T00:23:29.873Z,99.90
2017-12-04T00:25:56.781Z,99.90
2017-12-04T00:28:23.709Z,99.90
2017-12-04T00:30:50.612Z,99.90
2017-12-04T00:33:18.258Z,99.90
2017-12-04T00:35:45.937Z,99.90
2017-12-04T00:38:12.856Z,99.90
2017-12-04T00:40:40.528Z,99.90
2017-12-04T00:43:08.388Z,99.90
2017-12-04T00:45:37.124Z,99.90
2017-12-04T00:48:04.036Z,99.90
2017-12-04T00:50:30.963Z,99.90
2017-12-04T00:52:58.649Z,99.90
2017-12-04T00:55:25.552Z,99.90
2017-12-04T00:57:52.482Z,99.90
2017-12-04T01:00:19.401Z,99.90
2017-12-04T01:02:46.337Z,99.90
2017-12-04T01:05:13.240Z,99.90
2017-12-04T01:07:40.920Z,99.90
2017-12-04T01:10:07.845Z,99.90
2017-12-04T01:12:35.522Z,99.90
2017-12-04T01:15:02.440Z,99.90
2017-12-04T01:17:29.358Z,99.90
2017-12-04T01:19:58.308Z,99.90
2017-12-04T01:22:25.232Z,99.90
2017-12-04T01:24:52.153Z,99.90
2017-12-04T01:27:19.094Z,99.90
2017-12-04T01:29:46.021Z,99.90
2017-12-04T01:32:13.861Z,99.90
2017-12-04T01:34:40.772Z,99.90
2017-12-04T01:37:09.491Z,99.90
2017-12-04T01:39:36.429Z,99.90
2017-12-04T01:42:03.360Z,99.90
2017-12-04T01:44:31.044Z,99.90
2017-12-04T01:46:57.966Z,99.90
2017-12-04T01:49:24.873Z,99.90
2017-12-04T01:51:51.785Z,99.90
2017-12-04T01:54:18.722Z,99.90
2017-12-04T01:56:45.658Z,99.90
2017-12-04T01:59:12.598Z,99.90
2017-12-04T02:01:39.521Z,99.90
2017-12-04T02:04:06.444Z,99.90
2017-12-04T02:06:33.349Z,99.90
2017-12-04T02:09:00.272Z,99.90
2017-12-04T02:11:27.183Z,99.90
2017-12-04T02:13:54.121Z,99.90
2017-12-04T02:16:21.032Z,99.90
2017-12-04T02:18:48.975Z,99.90
2017-12-04T02:21:15.881Z,99.90
2017-12-04T02:23:42.804Z,99.90
2017-12-04T02:26:09.722Z,99.90
2017-12-04T02:28:36.653Z,99.90
2017-12-04T02:31:03.561Z,99.90
2017-12-04T02:33:30.497Z,99.90
2017-12-04T02:35:57.408Z,99.90
2017-12-04T02:38:24.327Z,99.90
2017-12-04T02:40:51.280Z,99.90
2017-12-04T02:43:18.228Z,99.90
2017-12-04T02:45:45.154Z,99.90
2017-12-04T02:48:12.079Z,99.90
2017-12-04T02:50:39.758Z,99.90
2017-12-04T02:53:06.685Z,99.90
2017-12-04T02:55:34.377Z,99.90
2017-12-04T02:58:01.329Z,99.90
2017-12-04T03:00:28.238Z,99.90
2017-12-04T03:02:55.936Z,99.90
2017-12-04T03:05:22.840Z,99.90
2017-12-04T03:07:49.757Z,99.90
2017-12-04T03:10:16.673Z,99.90
2017-12-04T03:12:44.510Z,99.90
2017-12-04T03:15:12.189Z,99.90
2017-12-04T03:17:42.929Z,99.90
2017-12-04T03:20:10.753Z,99.90
2017-12-04T03:22:38.665Z,99.90
2017-12-04T03:25:05.575Z,99.90
2017-12-04T03:27:33.253Z,99.90
2017-12-04T03:30:00.183Z,99.90
2017-12-04T03:32:27.870Z,99.90
2017-12-04T03:34:54.789Z,99.90
2017-12-04T03:37:22.472Z,99.90
2017-12-04T03:39:49.397Z,99.90
2017-12-04T03:42:18.073Z,99.90
2017-12-04T03:44:45.006Z,99.90
2017-12-04T03:47:11.976Z,99.90
2017-12-04T03:49:39.790Z,99.90
2017-12-04T03:52:06.736Z,99.90
2017-12-04T03:54:33.668Z,99.90
2017-12-04T03:57:00.586Z,99.90
2017-12-04T03:59:28.476Z,99.90
2017-12-04T04:01:55.387Z,99.90
2017-12-04T04:04:23.081Z,99.90
2017-12-04T04:06:49.986Z,99.90
2017-12-04T04:09:16.912Z,99.90
2017-12-04T04:11:43.817Z,99.90
2017-12-04T04:14:10.740Z,99.90
2017-12-04T04:16:37.645Z,99.90
2017-12-04T04:19:04.568Z,99.90
2017-12-04T04:21:31.492Z,99.90
2017-12-04T04:23:58.408Z,99.90
2017-12-04T04:26:26.249Z,99.90
2017-12-04T04:28:53.945Z,99.90
2017-12-04T04:31:20.861Z,99.90
2017-12-04T04:33:48.554Z,99.90
2017-12-04T04:36:16.432Z,99.90
2017-12-04T04:38:44.104Z,99.90
2017-12-04T04:41:12.016Z,99.90
2017-12-04T04:43:39.752Z,99.90
2017-12-04T04:46:06.660Z,99.90
2017-12-04T04:48:33.564Z,99.90
2017-12-04T04:51:00.498Z,99.90
2017-12-04T04:53:27.405Z,99.90
2017-12-04T04:55:54.323Z,99.90
2017-12-04T04:58:21.241Z,99.90
2017-12-04T05:00:48.937Z,99.90
2017-12-04T05:03:15.844Z,99.90
2017-12-04T05:05:42.770Z,99.90
2017-12-04T05:08:09.678Z,99.90
2017-12-04T05:10:36.595Z,99.90
2017-12-04T05:13:04.268Z,99.90
2017-12-04T05:15:32.124Z,99.90
2017-12-04T05:17:59.807Z,99.90
2017-12-04T05:20:26.745Z,99.90
2017-12-04T05:22:53.664Z,99.90
2017-12-04T05:25:21.357Z,99.90
2017-12-04T05:27:48.265Z,99.90
2017-12-04T05:30:15.965Z,99.90
2017-12-04T05:32:43.792Z,99.90
2017-12-04T05:35:11.488Z,99.90
2017-12-04T05:37:38.395Z,99.90
2017-12-04T05:40:06.297Z,99.90
2017-12-04T05:42:33.213Z,99.90
2017-12-04T05:45:00.903Z,99.90
2017-12-04T05:47:27.813Z,99.90
2017-12-04T05:49:55.500Z,99.90
2017-12-04T05:52:22.421Z,99.90
2017-12-04T05:54:50.121Z,99.90
2017-12-04T05:57:17.029Z,99.90
2017-12-04T05:59:45.734Z,99.90
2017-12-04T06:02:12.636Z,99.90
2017-12-04T06:04:39.557Z,99.90
2017-12-04T06:07:07.473Z,99.90
2017-12-04T06:09:35.172Z,99.90
2017-12-04T06:12:02.085Z,99.90
2017-12-04T06:14:30.577Z,99.90
2017-12-04T06:16:57.480Z,99.90
2017-12-04T06:19:25.912Z,99.90
2017-12-04T06:21:53.752Z,99.90
2017-12-04T06:24:21.451Z,99.90
2017-12-04T06:26:48.361Z,99.90
2017-12-04T06:29:16.063Z,99.90
2017-12-04T06:31:42.981Z,99.90
2017-12-04T06:34:09.908Z,99.90
2017-12-04T06:36:37.599Z,99.90
2017-12-04T06:39:04.522Z,99.90
2017-12-04T06:41:31.474Z,99.90
2017-12-04T06:43:58.415Z,99.90
2017-12-04T06:46:25.329Z,99.90
2017-12-04T06:48:52.515Z,99.90
2017-12-04T06:51:19.469Z,99.90
2017-12-04T06:53:46.384Z,99.90
2017-12-04T06:56:13.284Z,99.90
2017-12-04T06:58:40.200Z,99.90
2017-12-04T07:01:08.121Z,99.90
2017-12-04T07:03:35.792Z,99.90
2017-12-04T07:06:02.709Z,99.90
2017-12-04T07:08:29.625Z,99.90
2017-12-04T07:10:56.549Z,99.90
2017-12-04T07:13:23.464Z,99.90
2017-12-04T07:15:50.385Z,99.90
2017-12-04T07:18:19.072Z,99.90
2017-12-04T07:20:46.760Z,99.90
2017-12-04T07:23:13.668Z,99.90
2017-12-04T07:25:40.585Z,99.90
2017-12-04T07:28:07.484Z,99.90
2017-12-04T07:30:34.409Z,99.90
2017-12-04T07:33:02.085Z,99.90
2017-12-04T07:35:30.668Z,99.90
2017-12-04T07:37:58.353Z,99.90
2017-12-04T07:40:25.289Z,99.90
2017-12-04T07:42:52.189Z,99.90
2017-12-04T07:45:19.112Z,99.90
2017-12-04T07:47:46.291Z,99.90
2017-12-04T07:50:13.244Z,99.90
2017-12-04T07:52:40.952Z,99.90
2017-12-04T07:55:07.891Z,99.90
2017-12-04T07:57:34.794Z,99.90
2017-12-04T08:00:02.729Z,99.90
2017-12-04T08:02:29.636Z,99.90
2017-12-04T08:04:56.564Z,99.90
2017-12-04T08:07:23.477Z,99.90
2017-12-04T08:09:50.421Z,99.90
2017-12-04T08:12:17.329Z,99.90
2017-12-04T08:14:45.031Z,99.90
2017-12-04T08:17:11.935Z,99.90
2017-12-04T08:19:41.769Z,99.90
2017-12-04T08:22:08.685Z,99.90
2017-12-04T08:24:35.628Z,99.90
2017-12-04T08:27:03.473Z,99.90
2017-12-04T08:29:30.389Z,99.90
2017-12-04T08:31:58.337Z,99.90
2017-12-04T08:34:25.273Z,99.90
2017-12-04T08:36:52.945Z,99.90
2017-12-04T08:39:20.821Z,99.90
2017-12-04T08:41:47.758Z,99.90
2017-12-04T08:44:14.663Z,99.90
2017-12-04T08:46:41.588Z,99.90
2017-12-04T08:49:08.493Z,99.90
2017-12-04T08:51:35.417Z,99.90
2017-12-04T08:54:02.333Z,99.90
2017-12-04T08:56:29.276Z,99.90
2017-12-04T08:58:57.163Z,99.90
2017-12-04T09:01:24.085Z,99.90
2017-12-04T09:03:50.992Z,99.90
2017-12-04T09:06:17.916Z,99.90
2017-12-04T09:08:44.830Z,99.90
2017-12-04T09:11:11.752Z,99.90
2017-12-04T09:13:38.656Z,99.90
2017-12-04T09:16:05.593Z,99.90
2017-12-04T09:18:32.501Z,99.90
2017-12-04T09:20:59.414Z,99.90
2017-12-04T09:23:26.528Z,99.90
2017-12-04T09:25:57.900Z,99.90
2017-12-04T09:28:26.022Z,99.90
2017-12-04T09:30:53.712Z,99.90
2017-12-04T09:33:21.566Z,99.90
2017-12-04T09:35:49.282Z,99.90
2017-12-04T09:38:16.188Z,99.90
2017-12-04T09:40:43.117Z,99.90
2017-12-04T09:43:10.813Z,99.90
2017-12-04T09:45:37.736Z,99.90
2017-12-04T09:48:04.649Z,99.90
2017-12-04T09:50:31.577Z,99.90
2017-12-04T09:52:58.492Z,99.90
2017-12-04T09:55:25.427Z,99.90
2017-12-04T09:57:54.730Z,99.90
2017-12-04T10:00:22.109Z,99.90
2017-12-04T10:02:49.015Z,99.90
2017-12-04T10:05:15.940Z,99.90
2017-12-04T10:07:43.622Z,99.90
2017-12-04T10:10:10.600Z,99.90
2017-12-04T10:12:38.509Z,99.90
2017-12-04T10:15:07.444Z,99.90
2017-12-04T10:17:34.354Z,99.90
2017-12-04T10:20:02.048Z,99.90
2017-12-04T10:22:28.967Z,99.90
2017-12-04T10:24:57.657Z,99.90
2017-12-04T10:27:25.338Z,99.90
2017-12-04T10:29:53.185Z,99.90
2017-12-04T10:32:20.856Z,99.90
2017-12-04T10:34:47.794Z,99.90
2017-12-04T10:37:15.537Z,99.90
2017-12-04T10:39:45.185Z,99.90
2017-12-04T10:42:12.104Z,99.90
2017-12-04T10:44:39.817Z,99.90
2017-12-04T10:47:06.737Z,99.90
2017-12-04T10:49:33.673Z,99.90
2017-12-04T10:52:00.592Z,99.90
2017-12-04T10:54:28.286Z,99.90
2017-12-04T10:56:55.193Z,99.90
2017-12-04T10:59:22.890Z,99.90
2017-12-04T11:01:49.802Z,99.90
2017-12-04T11:04:17.499Z,99.90
2017-12-04T11:06:44.417Z,99.90
2017-12-04T11:09:12.102Z,99.90
2017-12-04T11:11:39.024Z,99.90
2017-12-04T11:14:05.964Z,99.90
2017-12-04T11:16:34.448Z,99.90
2017-12-04T11:19:02.153Z,99.90
2017-12-04T11:21:29.269Z,99.90
2017-12-04T11:23:56.237Z,99.90
2017-12-04T11:26:23.570Z,99.90
2017-12-04T11:28:50.513Z,99.90
2017-12-04T11:31:18.896Z,99.90
2017-12-04T11:33:45.923Z,99.90
2017-12-04T11:36:20.355Z,99.90
2017-12-04T11:38:47.301Z,99.90
2017-12-04T11:41:14.927Z,99.90
2017-12-04T11:43:41.860Z,99.90
2017-12-04T11:46:08.801Z,99.90
2017-12-04T11:48:35.708Z,99.90
2017-12-04T11:51:02.863Z,99.90
2017-12-04T11:53:30.801Z,99.70
2017-12-04T11:55:58.511Z,99.90
2017-12-04T11:58:26.420Z,99.90
2017-12-04T12:00:54.107Z,99.40
2017-12-04T12:03:21.012Z,99.40
2017-12-04T12:05:47.929Z,99.10
2017-12-04T12:08:14.841Z,99.20
2017-12-04T12:10:41.765Z,98.30
2017-12-04T12:13:09.432Z,97.60
2017-12-04T12:15:37.117Z,96.50
2017-12-04T12:18:04.021Z,96.50
2017-12-04T12:20:30.946Z,96.60
2017-12-04T12:22:59.874Z,95.50
2017-12-04T12:25:28.573Z,95.40
2017-12-04T12:27:55.480Z,95.40
2017-12-04T12:30:22.416Z,95.60
2017-12-04T12:32:49.344Z,95.30
2017-12-04T12:35:17.257Z,93.80
2017-12-04T12:37:44.940Z,92.50
2017-12-04T12:40:12.725Z,92.50
2017-12-04T12:42:40.638Z,92.60
2017-12-04T12:45:08.324Z,92.70
2017-12-04T12:47:35.237Z,92.70
2017-12-04T12:50:02.185Z,93.00
2017-12-04T12:52:29.107Z,92.50
2017-12-04T12:54:57.027Z,92.50
2017-12-04T12:57:23.936Z,92.50
2017-12-04T12:59:51.633Z,91.30
2017-12-04T13:02:19.509Z,91.30
2017-12-04T13:04:51.839Z,90.00
2017-12-04T13:07:19.529Z,89.30
2017-12-04T13:09:46.466Z,89.30
2017-12-04T13:12:13.377Z,89.40
2017-12-04T13:14:40.312Z,89.20
2017-12-04T13:17:07.229Z,89.90
2017-12-04T13:19:34.189Z,90.00
2017-12-04T13:22:01.118Z,90.00
2017-12-04T13:24:28.030Z,89.50
2017-12-04T13:26:54.989Z,89.10
2017-12-04T13:29:23.928Z,89.10
2017-12-04T13:31:51.628Z,89.30
2017-12-04T13:34:31.300Z,90.00
2017-12-04T13:37:14.433Z,90.20
2017-12-04T13:39:41.393Z,89.50
2017-12-04T13:42:09.098Z,89.10
2017-12-04T13:44:37.962Z,89.00
2017-12-04T13:47:04.899Z,89.70
2017-12-04T13:49:31.811Z,90.30
2017-12-04T13:51:58.736Z,90.30
2017-12-04T13:54:25.644Z,90.10
2017-12-04T13:56:52.569Z,90.20
2017-12-04T13:59:20.241Z,90.20
2017-12-04T14:01:47.163Z,90.20
2017-12-04T14:04:14.840Z,90.50
2017-12-04T14:06:43.541Z,90.20
2017-12-04T14:09:10.462Z,90.20
2017-12-04T14:11:37.401Z,90.10
2017-12-04T14:14:05.093Z,90.30
2017-12-04T14:16:32.012Z,90.30
2017-12-04T14:18:59.696Z,90.60
2017-12-04T14:21:26.639Z,90.60
2017-12-04T14:23:53.551Z,90.80
2017-12-04T14:26:20.471Z,90.80
2017-12-04T14:28:47.384Z,91.20
2017-12-04T14:31:14.321Z,91.60
2017-12-04T14:33:41.225Z,92.10
2017-12-04T14:36:09.116Z,92.60
2017-12-04T14:38:36.025Z,93.00
2017-12-04T14:41:03.752Z,93.80
2017-12-04T14:43:30.672Z,93.90
2017-12-04T14:45:57.605Z,94.20
2017-12-04T14:48:25.281Z,95.00
2017-12-04T14:50:52.205Z,95.00
2017-12-04T14:53:19.877Z,95.50
2017-12-04T14:55:47.589Z,95.30
2017-12-04T14:58:14.510Z,95.30
2017-12-04T15:00:41.408Z,95.50
2017-12-04T15:03:08.345Z,95.70
2017-12-04T15:05:35.266Z,95.40
2017-12-04T15:08:02.195Z,95.60
2017-12-04T15:10:29.104Z,95.70
2017-12-04T15:13:02.581Z,95.90
2017-12-04T15:15:29.532Z,95.80
2017-12-04T15:18:02.509Z,96.20
2017-12-04T15:20:29.697Z,96.20
2017-12-04T15:22:57.552Z,96.50
2017-12-04T15:25:24.501Z,96.60
2017-12-04T15:27:53.157Z,96.60
2017-12-04T15:30:20.088Z,96.60
2017-12-04T15:32:47.017Z,96.50
2017-12-04T15:35:14.948Z,96.50
2017-12-04T15:37:42.819Z,96.50
2017-12-04T15:40:09.758Z,96.70
2017-12-04T15:42:36.680Z,96.90
2017-12-04T15:45:06.310Z,97.20
2017-12-04T15:47:34.200Z,97.20
2017-12-04T15:50:01.116Z,97.10
2017-12-04T15:52:28.061Z,97.20
2017-12-04T15:54:55.908Z,97.50
2017-12-04T15:57:24.820Z,97.70
2017-12-04T15:59:51.773Z,97.90
2017-12-04T16:02:20.661Z,98.30
2017-12-04T16:04:49.522Z,98.30
2017-12-04T16:07:17.221Z,98.60
2017-12-04T16:09:44.160Z,98.50
2017-12-04T16:12:11.065Z,98.60
2017-12-04T16:14:38.009Z,98.60
2017-12-04T16:17:04.924Z,98.50
2017-12-04T16:19:32.867Z,98.60
2017-12-04T16:21:59.789Z,98.60
2017-12-04T16:24:26.734Z,98.60
2017-12-04T16:26:53.680Z,98.70
2017-12-04T16:29:20.593Z,98.60
2017-12-04T16:31:47.538Z,98.70
2017-12-04T16:34:14.453Z,98.80
2017-12-04T16:36:41.384Z,98.80
2017-12-04T16:39:08.301Z,98.80
2017-12-04T16:41:36.164Z,99.00
2017-12-04T16:44:03.855Z,99.30
2017-12-04T16:46:30.786Z,99.20
2017-12-04T16:48:57.701Z,99.20
2017-12-04T16:51:26.405Z,99.90
2017-12-04T16:53:55.021Z,99.90
2017-12-04T16:56:22.850Z,99.90
2017-12-04T16:58:50.074Z,99.90
2017-12-04T17:01:18.888Z,99.90
2017-12-04T17:03:45.823Z,99.90
2017-12-04T17:06:12.736Z,99.90
2017-12-04T17:08:41.386Z,99.90
2017-12-04T17:11:08.295Z,99.90
2017-12-04T17:13:36.120Z,99.90
2017-12-04T17:16:04.031Z,99.90
2017-12-04T17:18:32.941Z,99.90
2017-12-04T17:21:00.797Z,99.90
2017-12-04T17:23:28.508Z,99.90
2017-12-04T17:25:55.412Z,99.90
2017-12-04T17:28:28.187Z,99.90
2017-12-04T17:30:57.145Z,99.90
2017-12-04T17:33:28.632Z,99.90
2017-12-04T17:35:55.561Z,99.90
2017-12-04T17:38:23.261Z,99.90
2017-12-04T17:40:50.186Z,99.90
2017-12-04T17:43:17.912Z,99.90
2017-12-04T17:45:44.865Z,99.90
2017-12-04T17:48:15.242Z,99.90
2017-12-04T17:50:42.177Z,99.90
2017-12-04T17:53:10.144Z,99.90
2017-12-04T17:55:37.088Z,99.90
2017-12-04T17:58:04.444Z,99.90
2017-12-04T18:00:32.331Z,99.90
2017-12-04T18:03:00.265Z,99.90
2017-12-04T18:05:27.205Z,99.90
2017-12-04T18:07:55.034Z,99.90
2017-12-04T18:10:22.977Z,99.90
2017-12-04T18:12:51.833Z,99.90
2017-12-04T18:15:18.774Z,99.90
2017-12-04T18:17:45.698Z,99.90
2017-12-04T18:20:13.434Z,99.90
2017-12-04T18:22:41.366Z,99.90
2017-12-04T18:25:10.227Z,99.90
2017-12-04T18:27:42.424Z,99.90
2017-12-04T18:30:09.453Z,99.90
2017-12-04T18:32:39.902Z,99.90
2017-12-04T18:35:06.828Z,99.90
2017-12-04T18:37:33.757Z,99.90
2017-12-04T18:40:00.701Z,99.90
2017-12-04T18:42:30.351Z,99.90
2017-12-04T18:44:59.222Z,99.90
2017-12-04T18:47:27.081Z,99.90
2017-12-04T18:49:54.011Z,99.90
2017-12-04T18:52:20.955Z,99.90
2017-12-04T18:54:47.960Z,99.90
2017-12-04T18:57:15.907Z,99.90
2017-12-04T18:59:45.943Z,99.90
2017-12-04T19:02:13.884Z,99.90
2017-12-04T19:04:40.830Z,99.90
2017-12-04T19:07:07.793Z,99.90
2017-12-04T19:09:34.729Z,99.90
2017-12-04T19:12:02.677Z,99.90
2017-12-04T19:14:30.592Z,99.90
2017-12-04T19:16:59.652Z,99.90
2017-12-04T19:19:26.585Z,99.90
2017-12-04T19:21:54.446Z,99.90
2017-12-04T19:24:22.366Z,99.90
2017-12-04T19:26:50.283Z,99.90
2017-12-04T19:29:17.205Z,99.90
2017-12-04T19:31:44.918Z,99.90
2017-12-04T19:34:12.849Z,99.90
2017-12-04T19:36:41.558Z,99.90
2017-12-04T19:39:08.480Z,99.90
2017-12-04T19:41:38.226Z,99.90
2017-12-04T19:44:05.137Z,99.90
2017-12-04T19:46:32.081Z,99.90
2017-12-04T19:48:58.993Z,99.90
2017-12-04T19:51:25.931Z,99.90
2017-12-04T19:53:52.842Z,99.90
2017-12-04T19:56:21.722Z,99.90
2017-12-04T19:58:49.661Z,99.90
2017-12-04T20:01:21.541Z,99.90
2017-12-04T20:03:49.550Z,99.90
2017-12-04T20:06:17.377Z,99.90
2017-12-04T20:08:44.313Z,99.90
2017-12-04T20:11:11.357Z,99.90
2017-12-04T20:13:38.291Z,99.90
2017-12-04T20:16:06.012Z,99.90
2017-12-04T20:18:32.943Z,99.90
2017-12-04T20:21:00.896Z,99.90
2017-12-04T20:23:27.866Z,99.90
2017-12-04T20:25:54.838Z,99.90
2017-12-04T20:28:21.753Z,99.90
2017-12-04T20:30:48.698Z,99.90
2017-12-04T20:33:16.637Z,99.90
2017-12-04T20:35:43.555Z,99.90
2017-12-04T20:38:10.485Z,99.90
2017-12-04T20:40:37.398Z,99.90
2017-12-04T20:43:04.334Z,99.90
2017-12-04T20:45:32.183Z,99.90
2017-12-04T20:48:02.061Z,99.90
2017-12-04T20:50:28.986Z,99.90
2017-12-04T20:52:57.920Z,99.90
2017-12-04T20:55:25.789Z,99.90
2017-12-04T20:57:52.706Z,99.90
2017-12-04T21:00:19.632Z,99.90
2017-12-04T21:02:48.485Z,99.90
2017-12-04T21:05:15.426Z,99.90
2017-12-04T21:07:49.443Z,99.90
2017-12-04T21:10:29.198Z,99.90
2017-12-04T21:13:10.168Z,99.90
2017-12-04T21:18:39.579Z,99.90
2017-12-04T21:21:06.493Z,99.90
2017-12-04T21:23:34.194Z,99.90
2017-12-04T21:26:01.285Z,99.90
2017-12-04T21:28:28.205Z,99.90
2017-12-04T21:30:55.148Z,99.90
2017-12-04T21:33:22.073Z,99.90
2017-12-04T21:35:50.940Z,99.90
2017-12-04T21:38:17.853Z,99.90
2017-12-04T21:40:44.913Z,99.90
2017-12-04T21:43:13.651Z,99.90
2017-12-04T21:45:40.577Z,99.90
2017-12-04T21:48:07.492Z,99.90
2017-12-04T21:50:37.081Z,99.90
2017-12-04T21:53:05.927Z,99.90
2017-12-04T21:55:33.896Z,99.90
2017-12-04T21:58:00.826Z,99.90
2017-12-04T22:00:27.801Z,99.90
2017-12-04T22:02:55.725Z,99.90
2017-12-04T22:05:22.661Z,99.90
2017-12-04T22:07:49.618Z,99.90
2017-12-04T22:10:16.531Z,99.90
2017-12-04T22:12:44.448Z,99.90
2017-12-04T22:15:11.349Z,99.90
2017-12-04T22:17:40.066Z,99.90
2017-12-04T22:20:06.990Z,99.90
2017-12-04T22:22:34.726Z,99.90
2017-12-04T22:25:02.425Z,99.90
2017-12-04T22:27:29.374Z,99.90
2017-12-04T22:29:56.309Z,99.90
2017-12-04T22:32:23.255Z,99.90
2017-12-04T22:34:50.952Z,99.90
2017-12-04T22:37:18.869Z,99.90
2017-12-04T22:39:46.552Z,99.90
2017-12-04T22:42:13.457Z,99.90
2017-12-04T22:44:40.401Z,99.90
2017-12-04T22:47:07.316Z,99.90
2017-12-04T22:49:34.236Z,99.90
2017-12-04T22:52:01.141Z,99.90
2017-12-04T22:54:29.045Z,99.90
2017-12-04T22:56:55.957Z,99.90
2017-12-04T22:59:22.887Z,99.90
2017-12-04T23:01:49.800Z,99.90
2017-12-04T23:04:16.740Z,99.90
2017-12-04T23:06:43.663Z,99.90
2017-12-04T23:09:10.595Z,99.90
2017-12-04T23:11:38.268Z,99.90
2017-12-04T23:14:05.180Z,99.90
2017-12-04T23:16:33.088Z,99.90
2017-12-04T23:19:01.164Z,99.90
2017-12-04T23:21:28.156Z,99.90
2017-12-04T23:23:55.977Z,99.90
2017-12-04T23:26:22.880Z,99.90
2017-12-04T23:28:49.831Z,99.90
2017-12-04T23:31:17.516Z,99.90
2017-12-04T23:33:44.438Z,99.90
2017-12-04T23:36:13.140Z,99.90
2017-12-04T23:38:40.046Z,99.90
2017-12-04T23:41:06.989Z,99.90
2017-12-04T23:43:35.596Z,99.90
2017-12-04T23:46:06.449Z,99.90
2017-12-04T23:48:33.371Z,99.90
2017-12-04T23:51:01.089Z,99.90
2017-12-04T23:53:28.809Z,99.90
2017-12-04T23:55:57.497Z,99.90
2017-12-04T23:58:25.169Z,99.90
